Kezdőlap
METAR-TAF:

METAR-TAF

Repülőterek :

Fort-de-France, Martinique

földrajzi szélesség: 14-36N, földrajzi hosszúság: 061-00W, magasság: 5 m

Jelenlegi meteorológiai megfigyelések

A jelentés 39 perccel ezelõtt készült, 09:00 UTC
Keleti szél 7 kt
Hőmérséklet 26°C
Páratartalom 79%
Légköri nyomás 1013 hPa
Látótávolság 10 km, vagy több
Szórványos felhőzet 3000 lábon
Szakadozott felhőzet 3700 lábon

METAR: TFFF 090900Z AUTO 10007KT 9999 SCT030 BKN037 26/22 Q1013

Idő: 05:39 (09:39 UTC)


TAF: hiányzik

Meteorológiai megfigyelések és előrejelzések több, mint 4000 repülőtéren (METAR és TAF jelentéseket).

A térképen piros és sárga pontok jelzik az elérhető meteorológiai állomásokat.

Mozgassa az egeret a pont fölött, hogy megjelenjen az állomás neve.

Azután kattintson az időjárási megfigyelések és előrejelzések megtekintéséhez.

A térkép megváltoztatása: kattintson a fekete keresztel jelölt zöld gombra ráközelítéshez, a vonallal jelölt zöld gombra távolításhoz, vagy a zöld nyilakra a szomszédos térképek eléréséhez.


METAR-TAF: